sensor_id;sensor_type;location;lat;lon;timestamp;P1;durP1;ratioP1;P2;durP2;ratioP2
57565;SDS011;63999;43.882;-0.310;2023-03-14T00:00:14;10.25;;;2.15;;
57565;SDS011;63999;43.882;-0.310;2023-03-14T00:02:44;8.77;;;1.70;;
57565;SDS011;63999;43.882;-0.310;2023-03-14T00:05:33;10.52;;;1.98;;
57565;SDS011;63999;43.882;-0.310;2023-03-14T00:07:59;7.38;;;1.88;;
57565;SDS011;63999;43.882;-0.310;2023-03-14T00:10:24;10.23;;;2.05;;
57565;SDS011;63999;43.882;-0.310;2023-03-14T00:12:50;11.80;;;1.98;;
57565;SDS011;63999;43.882;-0.310;2023-03-14T00:15:16;9.57;;;1.98;;
57565;SDS011;63999;43.882;-0.310;2023-03-14T00:17:42;14.75;;;2.47;;
57565;SDS011;63999;43.882;-0.310;2023-03-14T00:20:09;10.63;;;2.67;;
57565;SDS011;63999;43.882;-0.310;2023-03-14T00:22:39;12.70;;;2.70;;
57565;SDS011;63999;43.882;-0.310;2023-03-14T00:25:07;11.68;;;2.53;;
57565;SDS011;63999;43.882;-0.310;2023-03-14T00:27:35;15.20;;;2.20;;
57565;SDS011;63999;43.882;-0.310;2023-03-14T00:30:04;17.02;;;3.05;;
57565;SDS011;63999;43.882;-0.310;2023-03-14T00:32:35;16.77;;;2.90;;
57565;SDS011;63999;43.882;-0.310;2023-03-14T00:35:01;13.98;;;2.90;;
57565;SDS011;63999;43.882;-0.310;2023-03-14T00:37:29;17.30;;;2.95;;
57565;SDS011;63999;43.882;-0.310;2023-03-14T00:39:55;17.48;;;3.00;;
57565;SDS011;63999;43.882;-0.310;2023-03-14T00:42:21;17.70;;;3.33;;
57565;SDS011;63999;43.882;-0.310;2023-03-14T00:44:47;14.90;;;3.35;;
57565;SDS011;63999;43.882;-0.310;2023-03-14T00:47:13;21.38;;;4.10;;
57565;SDS011;63999;43.882;-0.310;2023-03-14T00:49:43;17.48;;;3.55;;
57565;SDS011;63999;43.882;-0.310;2023-03-14T00:52:12;16.38;;;3.10;;
57565;SDS011;63999;43.882;-0.310;2023-03-14T00:54:38;18.40;;;3.88;;
57565;SDS011;63999;43.882;-0.310;2023-03-14T00:57:04;16.33;;;2.85;;
57565;SDS011;63999;43.882;-0.310;2023-03-14T00:59:29;13.40;;;2.70;;
57565;SDS011;63999;43.882;-0.310;2023-03-14T01:01:55;22.15;;;3.20;;
57565;SDS011;63999;43.882;-0.310;2023-03-14T01:04:21;16.08;;;2.72;;
57565;SDS011;63999;43.882;-0.310;2023-03-14T01:06:47;16.33;;;3.05;;
57565;SDS011;63999;43.882;-0.310;2023-03-14T01:09:13;14.98;;;2.70;;
57565;SDS011;63999;43.882;-0.310;2023-03-14T01:11:39;14.05;;;2.92;;
57565;SDS011;63999;43.882;-0.310;2023-03-14T01:14:06;18.65;;;3.15;;
57565;SDS011;63999;43.882;-0.310;2023-03-14T01:16:35;17.35;;;3.20;;
57565;SDS011;63999;43.882;-0.310;2023-03-14T01:19:04;14.77;;;3.30;;
57565;SDS011;63999;43.882;-0.310;2023-03-14T01:21:32;15.45;;;3.33;;
57565;SDS011;63999;43.882;-0.310;2023-03-14T01:24:01;14.77;;;2.97;;
57565;SDS011;63999;43.882;-0.310;2023-03-14T01:26:30;21.25;;;3.30;;
57565;SDS011;63999;43.882;-0.310;2023-03-14T01:29:04;13.88;;;3.30;;
57565;SDS011;63999;43.882;-0.310;2023-03-14T01:31:33;19.48;;;3.25;;
57565;SDS011;63999;43.882;-0.310;2023-03-14T01:36:29;14.88;;;2.95;;
57565;SDS011;63999;43.882;-0.310;2023-03-14T01:38:55;16.00;;;3.45;;
57565;SDS011;63999;43.882;-0.310;2023-03-14T01:41:23;19.63;;;3.78;;
57565;SDS011;63999;43.882;-0.310;2023-03-14T01:43:50;18.73;;;4.28;;
57565;SDS011;63999;43.882;-0.310;2023-03-14T01:46:28;20.08;;;3.83;;
57565;SDS011;63999;43.882;-0.310;2023-03-14T01:52:26;20.90;;;4.43;;
57565;SDS011;63999;43.882;-0.310;2023-03-14T01:55:03;19.92;;;3.75;;
57565;SDS011;63999;43.882;-0.310;2023-03-14T01:57:34;21.45;;;4.13;;
57565;SDS011;63999;43.882;-0.310;2023-03-14T02:00:06;18.33;;;3.88;;
57565;SDS011;63999;43.882;-0.310;2023-03-14T02:02:39;21.48;;;4.22;;
57565;SDS011;63999;43.882;-0.310;2023-03-14T02:05:10;24.30;;;3.88;;
57565;SDS011;63999;43.882;-0.310;2023-03-14T02:07:54;19.05;;;3.78;;
57565;SDS011;63999;43.882;-0.310;2023-03-14T02:10:34;23.05;;;3.97;;
57565;SDS011;63999;43.882;-0.310;2023-03-14T02:13:04;21.88;;;3.95;;
57565;SDS011;63999;43.882;-0.310;2023-03-14T02:15:33;20.77;;;4.53;;
57565;SDS011;63999;43.882;-0.310;2023-03-14T02:18:00;19.98;;;4.25;;
57565;SDS011;63999;43.882;-0.310;2023-03-14T02:20:34;18.83;;;4.55;;
57565;SDS011;63999;43.882;-0.310;2023-03-14T02:26:11;20.23;;;4.55;;
57565;SDS011;63999;43.882;-0.310;2023-03-14T02:28:39;25.08;;;4.88;;
57565;SDS011;63999;43.882;-0.310;2023-03-14T02:31:05;20.15;;;4.40;;
57565;SDS011;63999;43.882;-0.310;2023-03-14T02:33:33;20.52;;;4.22;;
57565;SDS011;63999;43.882;-0.310;2023-03-14T02:36:04;19.42;;;4.15;;
57565;SDS011;63999;43.882;-0.310;2023-03-14T02:38:39;26.05;;;4.63;;
57565;SDS011;63999;43.882;-0.310;2023-03-14T02:41:07;20.95;;;4.03;;
57565;SDS011;63999;43.882;-0.310;2023-03-14T02:43:33;18.85;;;4.40;;
57565;SDS011;63999;43.882;-0.310;2023-03-14T02:45:59;21.90;;;3.80;;
57565;SDS011;63999;43.882;-0.310;2023-03-14T02:48:34;16.42;;;4.00;;
57565;SDS011;63999;43.882;-0.310;2023-03-14T02:51:21;18.10;;;4.10;;
57565;SDS011;63999;43.882;-0.310;2023-03-14T02:53:49;21.02;;;3.92;;
57565;SDS011;63999;43.882;-0.310;2023-03-14T02:56:15;16.52;;;3.80;;
57565;SDS011;63999;43.882;-0.310;2023-03-14T02:58:44;19.60;;;3.92;;
57565;SDS011;63999;43.882;-0.310;2023-03-14T03:01:10;18.13;;;4.22;;
57565;SDS011;63999;43.882;-0.310;2023-03-14T03:03:36;19.65;;;4.40;;
57565;SDS011;63999;43.882;-0.310;2023-03-14T03:06:05;16.23;;;3.92;;
57565;SDS011;63999;43.882;-0.310;2023-03-14T03:08:31;22.17;;;5.00;;
57565;SDS011;63999;43.882;-0.310;2023-03-14T03:10:58;19.45;;;4.10;;
57565;SDS011;63999;43.882;-0.310;2023-03-14T03:13:24;21.02;;;4.35;;
57565;SDS011;63999;43.882;-0.310;2023-03-14T03:15:50;23.10;;;5.13;;
57565;SDS011;63999;43.882;-0.310;2023-03-14T03:18:16;26.60;;;4.97;;
57565;SDS011;63999;43.882;-0.310;2023-03-14T03:20:44;20.83;;;4.38;;
57565;SDS011;63999;43.882;-0.310;2023-03-14T03:23:12;25.33;;;4.65;;
57565;SDS011;63999;43.882;-0.310;2023-03-14T03:25:39;22.90;;;5.43;;
57565;SDS011;63999;43.882;-0.310;2023-03-14T03:28:05;24.25;;;5.15;;
57565;SDS011;63999;43.882;-0.310;2023-03-14T03:30:38;29.60;;;6.05;;
57565;SDS011;63999;43.882;-0.310;2023-03-14T03:33:05;31.15;;;6.18;;
57565;SDS011;63999;43.882;-0.310;2023-03-14T03:35:43;26.80;;;4.93;;
57565;SDS011;63999;43.882;-0.310;2023-03-14T03:38:15;27.90;;;5.80;;
57565;SDS011;63999;43.882;-0.310;2023-03-14T03:40:45;28.67;;;6.50;;
57565;SDS011;63999;43.882;-0.310;2023-03-14T03:43:14;26.85;;;5.65;;
57565;SDS011;63999;43.882;-0.310;2023-03-14T03:45:40;23.85;;;6.03;;
57565;SDS011;63999;43.882;-0.310;2023-03-14T03:48:07;30.83;;;6.47;;
57565;SDS011;63999;43.882;-0.310;2023-03-14T03:50:45;32.65;;;5.93;;
57565;SDS011;63999;43.882;-0.310;2023-03-14T03:53:12;28.42;;;5.65;;
57565;SDS011;63999;43.882;-0.310;2023-03-14T03:55:42;26.00;;;5.88;;
57565;SDS011;63999;43.882;-0.310;2023-03-14T03:58:08;28.58;;;5.53;;
57565;SDS011;63999;43.882;-0.310;2023-03-14T04:00:34;27.65;;;5.82;;
57565;SDS011;63999;43.882;-0.310;2023-03-14T04:03:04;33.42;;;6.07;;
57565;SDS011;63999;43.882;-0.310;2023-03-14T04:05:32;27.17;;;5.40;;
57565;SDS011;63999;43.882;-0.310;2023-03-14T04:07:59;26.30;;;5.50;;
57565;SDS011;63999;43.882;-0.310;2023-03-14T04:10:26;26.08;;;5.43;;
57565;SDS011;63999;43.882;-0.310;2023-03-14T04:12:53;29.35;;;5.45;;
57565;SDS011;63999;43.882;-0.310;2023-03-14T04:15:18;29.77;;;5.55;;
57565;SDS011;63999;43.882;-0.310;2023-03-14T04:17:45;24.95;;;5.50;;
57565;SDS011;63999;43.882;-0.310;2023-03-14T04:20:11;27.13;;;4.70;;
57565;SDS011;63999;43.882;-0.310;2023-03-14T04:22:38;22.90;;;4.75;;
57565;SDS011;63999;43.882;-0.310;2023-03-14T04:25:04;21.67;;;3.80;;
57565;SDS011;63999;43.882;-0.310;2023-03-14T04:27:33;18.90;;;4.15;;
57565;SDS011;63999;43.882;-0.310;2023-03-14T04:29:59;21.92;;;4.75;;
57565;SDS011;63999;43.882;-0.310;2023-03-14T04:32:25;21.85;;;4.05;;
57565;SDS011;63999;43.882;-0.310;2023-03-14T04:34:52;21.50;;;4.57;;
57565;SDS011;63999;43.882;-0.310;2023-03-14T04:37:18;28.63;;;5.20;;
57565;SDS011;63999;43.882;-0.310;2023-03-14T04:39:44;21.27;;;4.32;;
57565;SDS011;63999;43.882;-0.310;2023-03-14T04:42:09;22.38;;;4.15;;
57565;SDS011;63999;43.882;-0.310;2023-03-14T04:44:35;23.17;;;4.53;;
57565;SDS011;63999;43.882;-0.310;2023-03-14T04:47:01;26.48;;;5.25;;
57565;SDS011;63999;43.882;-0.310;2023-03-14T04:49:27;24.48;;;4.60;;
57565;SDS011;63999;43.882;-0.310;2023-03-14T04:51:53;24.45;;;4.93;;
57565;SDS011;63999;43.882;-0.310;2023-03-14T04:54:19;24.23;;;4.60;;
57565;SDS011;63999;43.882;-0.310;2023-03-14T04:56:45;22.27;;;4.82;;
57565;SDS011;63999;43.882;-0.310;2023-03-14T04:59:10;20.15;;;4.45;;
57565;SDS011;63999;43.882;-0.310;2023-03-14T05:01:36;21.98;;;4.05;;
57565;SDS011;63999;43.882;-0.310;2023-03-14T05:04:03;22.63;;;3.88;;
57565;SDS011;63999;43.882;-0.310;2023-03-14T05:06:29;23.77;;;4.55;;
57565;SDS011;63999;43.882;-0.310;2023-03-14T05:08:55;20.58;;;4.57;;
57565;SDS011;63999;43.882;-0.310;2023-03-14T05:11:21;19.27;;;3.75;;
57565;SDS011;63999;43.882;-0.310;2023-03-14T05:13:46;25.30;;;4.65;;
57565;SDS011;63999;43.882;-0.310;2023-03-14T05:16:12;22.10;;;4.40;;
57565;SDS011;63999;43.882;-0.310;2023-03-14T05:18:38;19.98;;;4.28;;
57565;SDS011;63999;43.882;-0.310;2023-03-14T05:21:04;17.77;;;3.67;;
57565;SDS011;63999;43.882;-0.310;2023-03-14T05:23:30;21.95;;;3.78;;
57565;SDS011;63999;43.882;-0.310;2023-03-14T05:25:56;24.45;;;4.28;;
57565;SDS011;63999;43.882;-0.310;2023-03-14T05:28:22;23.35;;;4.68;;
57565;SDS011;63999;43.882;-0.310;2023-03-14T05:30:48;23.77;;;4.38;;
57565;SDS011;63999;43.882;-0.310;2023-03-14T05:33:14;22.55;;;4.40;;
57565;SDS011;63999;43.882;-0.310;2023-03-14T05:35:39;23.85;;;4.78;;
57565;SDS011;63999;43.882;-0.310;2023-03-14T05:38:06;22.90;;;5.00;;
57565;SDS011;63999;43.882;-0.310;2023-03-14T05:40:32;24.35;;;4.63;;
57565;SDS011;63999;43.882;-0.310;2023-03-14T05:42:59;31.05;;;5.50;;
57565;SDS011;63999;43.882;-0.310;2023-03-14T05:45:26;27.67;;;5.18;;
57565;SDS011;63999;43.882;-0.310;2023-03-14T05:47:52;37.90;;;6.07;;
57565;SDS011;63999;43.882;-0.310;2023-03-14T05:50:18;25.55;;;5.28;;
57565;SDS011;63999;43.882;-0.310;2023-03-14T05:52:44;27.35;;;4.85;;
57565;SDS011;63999;43.882;-0.310;2023-03-14T05:55:10;29.08;;;5.35;;
57565;SDS011;63999;43.882;-0.310;2023-03-14T05:57:36;33.35;;;6.20;;
57565;SDS011;63999;43.882;-0.310;2023-03-14T06:00:02;31.58;;;5.88;;
57565;SDS011;63999;43.882;-0.310;2023-03-14T06:02:29;27.63;;;5.97;;
57565;SDS011;63999;43.882;-0.310;2023-03-14T06:04:55;30.38;;;6.00;;
57565;SDS011;63999;43.882;-0.310;2023-03-14T06:07:22;33.75;;;6.50;;
57565;SDS011;63999;43.882;-0.310;2023-03-14T06:09:49;30.75;;;6.20;;
57565;SDS011;63999;43.882;-0.310;2023-03-14T06:12:16;30.70;;;6.97;;
57565;SDS011;63999;43.882;-0.310;2023-03-14T06:14:42;35.13;;;5.63;;
57565;SDS011;63999;43.882;-0.310;2023-03-14T06:17:08;34.50;;;6.45;;
57565;SDS011;63999;43.882;-0.310;2023-03-14T06:19:33;31.95;;;5.97;;
57565;SDS011;63999;43.882;-0.310;2023-03-14T06:21:59;31.75;;;5.93;;
57565;SDS011;63999;43.882;-0.310;2023-03-14T06:24:25;30.73;;;6.57;;
57565;SDS011;63999;43.882;-0.310;2023-03-14T06:26:51;30.30;;;6.22;;
57565;SDS011;63999;43.882;-0.310;2023-03-14T06:29:17;32.45;;;5.78;;
57565;SDS011;63999;43.882;-0.310;2023-03-14T06:31:43;31.20;;;5.45;;
57565;SDS011;63999;43.882;-0.310;2023-03-14T06:34:08;23.70;;;5.10;;
57565;SDS011;63999;43.882;-0.310;2023-03-14T06:36:34;30.80;;;6.00;;
57565;SDS011;63999;43.882;-0.310;2023-03-14T06:39:00;27.58;;;5.78;;
57565;SDS011;63999;43.882;-0.310;2023-03-14T06:41:26;27.65;;;5.05;;
57565;SDS011;63999;43.882;-0.310;2023-03-14T06:43:52;26.63;;;4.90;;
57565;SDS011;63999;43.882;-0.310;2023-03-14T06:46:18;36.15;;;6.05;;
57565;SDS011;63999;43.882;-0.310;2023-03-14T06:48:48;29.67;;;6.57;;
57565;SDS011;63999;43.882;-0.310;2023-03-14T06:51:15;30.88;;;4.90;;
57565;SDS011;63999;43.882;-0.310;2023-03-14T06:53:43;33.05;;;6.30;;
57565;SDS011;63999;43.882;-0.310;2023-03-14T06:56:20;25.70;;;5.22;;
57565;SDS011;63999;43.882;-0.310;2023-03-14T06:58:46;29.75;;;5.53;;
57565;SDS011;63999;43.882;-0.310;2023-03-14T07:01:31;31.27;;;5.60;;
57565;SDS011;63999;43.882;-0.310;2023-03-14T07:04:17;34.97;;;7.10;;
57565;SDS011;63999;43.882;-0.310;2023-03-14T07:06:45;29.08;;;5.72;;
57565;SDS011;63999;43.882;-0.310;2023-03-14T07:09:14;33.90;;;6.45;;
57565;SDS011;63999;43.882;-0.310;2023-03-14T07:11:42;27.45;;;5.47;;
57565;SDS011;63999;43.882;-0.310;2023-03-14T07:14:09;26.33;;;5.13;;
57565;SDS011;63999;43.882;-0.310;2023-03-14T07:16:36;27.45;;;5.65;;
57565;SDS011;63999;43.882;-0.310;2023-03-14T07:19:06;25.90;;;4.95;;
57565;SDS011;63999;43.882;-0.310;2023-03-14T07:21:36;31.67;;;5.65;;
57565;SDS011;63999;43.882;-0.310;2023-03-14T07:24:03;30.02;;;6.38;;
57565;SDS011;63999;43.882;-0.310;2023-03-14T07:26:29;29.70;;;6.47;;
57565;SDS011;63999;43.882;-0.310;2023-03-14T07:28:55;32.42;;;5.95;;
57565;SDS011;63999;43.882;-0.310;2023-03-14T07:31:21;33.78;;;5.53;;
57565;SDS011;63999;43.882;-0.310;2023-03-14T07:33:47;31.15;;;6.60;;
57565;SDS011;63999;43.882;-0.310;2023-03-14T07:36:13;26.75;;;5.30;;
57565;SDS011;63999;43.882;-0.310;2023-03-14T07:38:39;27.08;;;5.20;;
57565;SDS011;63999;43.882;-0.310;2023-03-14T07:41:06;33.50;;;5.82;;
57565;SDS011;63999;43.882;-0.310;2023-03-14T07:43:32;29.52;;;5.60;;
57565;SDS011;63999;43.882;-0.310;2023-03-14T07:45:59;27.00;;;4.88;;
57565;SDS011;63999;43.882;-0.310;2023-03-14T07:48:26;23.50;;;4.70;;
57565;SDS011;63999;43.882;-0.310;2023-03-14T07:50:53;22.75;;;4.28;;
57565;SDS011;63999;43.882;-0.310;2023-03-14T07:53:21;22.42;;;4.40;;
57565;SDS011;63999;43.882;-0.310;2023-03-14T07:55:48;17.88;;;3.35;;
57565;SDS011;63999;43.882;-0.310;2023-03-14T07:58:15;18.65;;;3.38;;
57565;SDS011;63999;43.882;-0.310;2023-03-14T08:00:41;17.75;;;3.40;;
57565;SDS011;63999;43.882;-0.310;2023-03-14T08:03:08;12.25;;;2.95;;
57565;SDS011;63999;43.882;-0.310;2023-03-14T08:05:35;15.70;;;3.45;;
57565;SDS011;63999;43.882;-0.310;2023-03-14T08:08:03;15.40;;;2.92;;
57565;SDS011;63999;43.882;-0.310;2023-03-14T08:10:30;14.32;;;2.78;;
57565;SDS011;63999;43.882;-0.310;2023-03-14T08:12:56;11.07;;;2.72;;
57565;SDS011;63999;43.882;-0.310;2023-03-14T08:15:27;11.23;;;2.40;;
57565;SDS011;63999;43.882;-0.310;2023-03-14T08:17:55;13.75;;;2.72;;
57565;SDS011;63999;43.882;-0.310;2023-03-14T08:20:28;10.93;;;2.50;;
57565;SDS011;63999;43.882;-0.310;2023-03-14T08:22:59;12.82;;;2.65;;
57565;SDS011;63999;43.882;-0.310;2023-03-14T08:28:26;11.15;;;2.38;;
57565;SDS011;63999;43.882;-0.310;2023-03-14T08:31:01;12.07;;;2.28;;
57565;SDS011;63999;43.882;-0.310;2023-03-14T08:33:30;7.78;;;2.30;;
57565;SDS011;63999;43.882;-0.310;2023-03-14T08:35:58;7.75;;;1.90;;
57565;SDS011;63999;43.882;-0.310;2023-03-14T08:38:25;13.35;;;2.28;;
57565;SDS011;63999;43.882;-0.310;2023-03-14T08:40:55;10.93;;;2.22;;
57565;SDS011;63999;43.882;-0.310;2023-03-14T08:43:25;9.35;;;2.15;;
57565;SDS011;63999;43.882;-0.310;2023-03-14T08:45:51;10.77;;;2.30;;
57565;SDS011;63999;43.882;-0.310;2023-03-14T08:48:17;11.77;;;2.28;;
57565;SDS011;63999;43.882;-0.310;2023-03-14T08:50:44;13.50;;;2.33;;
57565;SDS011;63999;43.882;-0.310;2023-03-14T08:53:11;11.23;;;2.38;;
57565;SDS011;63999;43.882;-0.310;2023-03-14T08:55:37;9.90;;;2.15;;
57565;SDS011;63999;43.882;-0.310;2023-03-14T08:58:03;13.30;;;2.30;;
57565;SDS011;63999;43.882;-0.310;2023-03-14T09:00:30;12.55;;;2.30;;
57565;SDS011;63999;43.882;-0.310;2023-03-14T09:02:55;15.82;;;2.65;;
57565;SDS011;63999;43.882;-0.310;2023-03-14T09:05:21;8.00;;;2.05;;
57565;SDS011;63999;43.882;-0.310;2023-03-14T09:07:47;9.38;;;2.33;;
57565;SDS011;63999;43.882;-0.310;2023-03-14T09:10:14;12.77;;;2.50;;
57565;SDS011;63999;43.882;-0.310;2023-03-14T09:12:40;12.10;;;2.22;;
57565;SDS011;63999;43.882;-0.310;2023-03-14T09:15:06;10.68;;;2.20;;
57565;SDS011;63999;43.882;-0.310;2023-03-14T09:17:33;10.10;;;1.98;;
57565;SDS011;63999;43.882;-0.310;2023-03-14T09:19:59;9.35;;;1.88;;
57565;SDS011;63999;43.882;-0.310;2023-03-14T09:22:26;10.82;;;2.83;;
57565;SDS011;63999;43.882;-0.310;2023-03-14T09:24:52;11.48;;;2.70;;
57565;SDS011;63999;43.882;-0.310;2023-03-14T09:27:19;9.55;;;2.67;;
57565;SDS011;63999;43.882;-0.310;2023-03-14T09:29:45;13.50;;;3.85;;
57565;SDS011;63999;43.882;-0.310;2023-03-14T09:32:12;11.43;;;3.60;;
57565;SDS011;63999;43.882;-0.310;2023-03-14T09:34:41;15.30;;;3.75;;
57565;SDS011;63999;43.882;-0.310;2023-03-14T09:37:07;11.88;;;3.85;;
57565;SDS011;63999;43.882;-0.310;2023-03-14T09:39:33;9.63;;;3.35;;
57565;SDS011;63999;43.882;-0.310;2023-03-14T09:42:01;9.93;;;2.95;;
57565;SDS011;63999;43.882;-0.310;2023-03-14T09:44:39;8.27;;;2.95;;
57565;SDS011;63999;43.882;-0.310;2023-03-14T09:47:18;8.80;;;2.35;;
57565;SDS011;63999;43.882;-0.310;2023-03-14T09:49:45;11.85;;;2.47;;
57565;SDS011;63999;43.882;-0.310;2023-03-14T09:52:12;6.88;;;1.95;;
57565;SDS011;63999;43.882;-0.310;2023-03-14T09:54:51;6.80;;;1.80;;
57565;SDS011;63999;43.882;-0.310;2023-03-14T09:57:21;6.15;;;1.85;;
57565;SDS011;63999;43.882;-0.310;2023-03-14T09:59:50;6.97;;;1.58;;
57565;SDS011;63999;43.882;-0.310;2023-03-14T10:02:24;9.35;;;1.70;;
57565;SDS011;63999;43.882;-0.310;2023-03-14T10:04:56;10.10;;;1.70;;
57565;SDS011;63999;43.882;-0.310;2023-03-14T10:10:00;8.23;;;1.80;;
57565;SDS011;63999;43.882;-0.310;2023-03-14T10:12:31;5.55;;;1.30;;
57565;SDS011;63999;43.882;-0.310;2023-03-14T10:15:01;9.10;;;1.60;;
57565;SDS011;63999;43.882;-0.310;2023-03-14T10:17:37;9.85;;;1.67;;
57565;SDS011;63999;43.882;-0.310;2023-03-14T10:20:48;7.90;;;1.65;;
57565;SDS011;63999;43.882;-0.310;2023-03-14T10:26:24;9.07;;;2.17;;
57565;SDS011;63999;43.882;-0.310;2023-03-14T10:31:26;10.43;;;2.40;;
57565;SDS011;63999;43.882;-0.310;2023-03-14T10:33:59;13.13;;;2.20;;
57565;SDS011;63999;43.882;-0.310;2023-03-14T10:36:30;13.15;;;2.33;;
57565;SDS011;63999;43.882;-0.310;2023-03-14T10:41:54;13.15;;;2.53;;
57565;SDS011;63999;43.882;-0.310;2023-03-14T10:44:38;13.55;;;2.63;;
57565;SDS011;63999;43.882;-0.310;2023-03-14T10:47:05;9.65;;;2.28;;
57565;SDS011;63999;43.882;-0.310;2023-03-14T10:49:33;12.27;;;1.90;;
57565;SDS011;63999;43.882;-0.310;2023-03-14T10:52:19;9.55;;;2.25;;
57565;SDS011;63999;43.882;-0.310;2023-03-14T10:54:59;8.57;;;2.28;;
57565;SDS011;63999;43.882;-0.310;2023-03-14T10:57:41;14.05;;;2.53;;
57565;SDS011;63999;43.882;-0.310;2023-03-14T11:00:29;11.48;;;2.22;;
57565;SDS011;63999;43.882;-0.310;2023-03-14T11:03:08;9.48;;;2.13;;
57565;SDS011;63999;43.882;-0.310;2023-03-14T11:08:19;10.00;;;1.92;;
57565;SDS011;63999;43.882;-0.310;2023-03-14T11:13:47;10.13;;;2.60;;
57565;SDS011;63999;43.882;-0.310;2023-03-14T11:26:59;11.25;;;2.35;;
57565;SDS011;63999;43.882;-0.310;2023-03-14T11:29:40;12.38;;;2.63;;
57565;SDS011;63999;43.882;-0.310;2023-03-14T11:35:22;9.75;;;2.38;;
57565;SDS011;63999;43.882;-0.310;2023-03-14T11:38:14;11.20;;;2.30;;
57565;SDS011;63999;43.882;-0.310;2023-03-14T11:40:54;11.00;;;2.35;;
57565;SDS011;63999;43.882;-0.310;2023-03-14T11:43:32;10.50;;;2.05;;
57565;SDS011;63999;43.882;-0.310;2023-03-14T11:51:41;13.55;;;2.47;;
57565;SDS011;63999;43.882;-0.310;2023-03-14T11:54:14;13.05;;;2.58;;
57565;SDS011;63999;43.882;-0.310;2023-03-14T11:56:58;10.07;;;2.25;;
57565;SDS011;63999;43.882;-0.310;2023-03-14T12:02:06;11.53;;;2.07;;
57565;SDS011;63999;43.882;-0.310;2023-03-14T12:07:33;10.40;;;2.03;;
57565;SDS011;63999;43.882;-0.310;2023-03-14T12:10:19;8.85;;;2.10;;
57565;SDS011;63999;43.882;-0.310;2023-03-14T12:12:46;12.27;;;2.17;;
57565;SDS011;63999;43.882;-0.310;2023-03-14T12:15:20;7.75;;;1.77;;
57565;SDS011;63999;43.882;-0.310;2023-03-14T12:17:57;10.23;;;1.75;;
57565;SDS011;63999;43.882;-0.310;2023-03-14T12:20:24;9.95;;;2.10;;
57565;SDS011;63999;43.882;-0.310;2023-03-14T12:23:01;10.50;;;2.30;;
57565;SDS011;63999;43.882;-0.310;2023-03-14T12:25:35;8.40;;;1.80;;
57565;SDS011;63999;43.882;-0.310;2023-03-14T12:28:20;11.10;;;2.13;;
57565;SDS011;63999;43.882;-0.310;2023-03-14T12:30:55;10.30;;;1.70;;
57565;SDS011;63999;43.882;-0.310;2023-03-14T12:33:26;10.25;;;1.90;;
57565;SDS011;63999;43.882;-0.310;2023-03-14T12:36:00;14.20;;;2.13;;
57565;SDS011;63999;43.882;-0.310;2023-03-14T12:43:40;13.85;;;2.10;;
57565;SDS011;63999;43.882;-0.310;2023-03-14T12:46:15;13.95;;;2.10;;
57565;SDS011;63999;43.882;-0.310;2023-03-14T12:48:45;9.77;;;2.30;;
57565;SDS011;63999;43.882;-0.310;2023-03-14T12:51:14;11.73;;;2.20;;
57565;SDS011;63999;43.882;-0.310;2023-03-14T12:56:39;7.43;;;1.60;;
57565;SDS011;63999;43.882;-0.310;2023-03-14T12:59:36;12.10;;;1.90;;
57565;SDS011;63999;43.882;-0.310;2023-03-14T13:07:13;8.07;;;1.73;;
57565;SDS011;63999;43.882;-0.310;2023-03-14T13:10:00;6.88;;;1.67;;
57565;SDS011;63999;43.882;-0.310;2023-03-14T13:12:42;7.78;;;1.67;;
57565;SDS011;63999;43.882;-0.310;2023-03-14T13:15:20;6.55;;;1.52;;
57565;SDS011;63999;43.882;-0.310;2023-03-14T13:17:51;10.18;;;1.70;;
57565;SDS011;63999;43.882;-0.310;2023-03-14T13:20:24;14.32;;;3.95;;
57565;SDS011;63999;43.882;-0.310;2023-03-14T13:22:53;12.75;;;2.42;;
57565;SDS011;63999;43.882;-0.310;2023-03-14T13:25:19;10.45;;;2.00;;
57565;SDS011;63999;43.882;-0.310;2023-03-14T13:27:47;10.80;;;1.80;;
57565;SDS011;63999;43.882;-0.310;2023-03-14T13:30:22;10.02;;;1.40;;
57565;SDS011;63999;43.882;-0.310;2023-03-14T13:32:50;11.25;;;1.85;;
57565;SDS011;63999;43.882;-0.310;2023-03-14T13:35:20;8.35;;;1.67;;
57565;SDS011;63999;43.882;-0.310;2023-03-14T13:37:58;9.95;;;2.00;;
57565;SDS011;63999;43.882;-0.310;2023-03-14T13:40:32;9.48;;;1.63;;
57565;SDS011;63999;43.882;-0.310;2023-03-14T13:43:01;13.65;;;2.08;;
57565;SDS011;63999;43.882;-0.310;2023-03-14T13:45:53;10.00;;;1.42;;
57565;SDS011;63999;43.882;-0.310;2023-03-14T13:48:25;12.48;;;2.30;;
57565;SDS011;63999;43.882;-0.310;2023-03-14T13:50:55;8.75;;;1.85;;
57565;SDS011;63999;43.882;-0.310;2023-03-14T13:53:24;11.23;;;2.17;;
57565;SDS011;63999;43.882;-0.310;2023-03-14T13:55:50;13.82;;;2.30;;
57565;SDS011;63999;43.882;-0.310;2023-03-14T13:58:22;12.00;;;2.83;;
57565;SDS011;63999;43.882;-0.310;2023-03-14T14:03:22;12.75;;;2.47;;
57565;SDS011;63999;43.882;-0.310;2023-03-14T14:05:49;15.90;;;2.13;;
57565;SDS011;63999;43.882;-0.310;2023-03-14T14:08:15;11.48;;;2.25;;
57565;SDS011;63999;43.882;-0.310;2023-03-14T14:10:41;12.80;;;2.08;;
57565;SDS011;63999;43.882;-0.310;2023-03-14T14:13:08;12.23;;;1.80;;
57565;SDS011;63999;43.882;-0.310;2023-03-14T14:15:42;9.98;;;1.52;;
57565;SDS011;63999;43.882;-0.310;2023-03-14T14:18:12;10.10;;;2.15;;
57565;SDS011;63999;43.882;-0.310;2023-03-14T14:20:46;9.77;;;2.10;;
57565;SDS011;63999;43.882;-0.310;2023-03-14T14:23:20;11.82;;;2.05;;
57565;SDS011;63999;43.882;-0.310;2023-03-14T14:25:57;9.32;;;1.40;;
57565;SDS011;63999;43.882;-0.310;2023-03-14T14:28:29;12.68;;;2.42;;
57565;SDS011;63999;43.882;-0.310;2023-03-14T14:31:04;12.93;;;2.28;;
57565;SDS011;63999;43.882;-0.310;2023-03-14T14:33:55;9.77;;;1.70;;
57565;SDS011;63999;43.882;-0.310;2023-03-14T14:41:44;8.88;;;2.00;;
57565;SDS011;63999;43.882;-0.310;2023-03-14T14:44:13;8.35;;;1.92;;
57565;SDS011;63999;43.882;-0.310;2023-03-14T14:46:41;7.93;;;1.70;;
57565;SDS011;63999;43.882;-0.310;2023-03-14T14:49:19;12.68;;;2.42;;
57565;SDS011;63999;43.882;-0.310;2023-03-14T14:51:49;9.07;;;2.35;;
57565;SDS011;63999;43.882;-0.310;2023-03-14T14:54:16;11.57;;;2.50;;
57565;SDS011;63999;43.882;-0.310;2023-03-14T14:56:51;13.63;;;2.15;;
57565;SDS011;63999;43.882;-0.310;2023-03-14T14:59:23;10.95;;;1.50;;
57565;SDS011;63999;43.882;-0.310;2023-03-14T15:02:00;9.75;;;1.92;;
57565;SDS011;63999;43.882;-0.310;2023-03-14T15:04:31;12.32;;;1.85;;
57565;SDS011;63999;43.882;-0.310;2023-03-14T15:06:59;12.73;;;2.03;;
57565;SDS011;63999;43.882;-0.310;2023-03-14T15:09:27;11.88;;;1.92;;
57565;SDS011;63999;43.882;-0.310;2023-03-14T15:11:53;11.95;;;2.10;;
57565;SDS011;63999;43.882;-0.310;2023-03-14T15:14:18;11.32;;;2.53;;
57565;SDS011;63999;43.882;-0.310;2023-03-14T15:16:45;11.75;;;2.50;;
57565;SDS011;63999;43.882;-0.310;2023-03-14T15:19:29;12.50;;;2.25;;
57565;SDS011;63999;43.882;-0.310;2023-03-14T15:21:57;10.15;;;2.08;;
57565;SDS011;63999;43.882;-0.310;2023-03-14T15:24:23;14.43;;;2.30;;
57565;SDS011;63999;43.882;-0.310;2023-03-14T15:26:50;10.27;;;2.03;;
57565;SDS011;63999;43.882;-0.310;2023-03-14T15:29:16;10.43;;;2.10;;
57565;SDS011;63999;43.882;-0.310;2023-03-14T15:31:42;8.77;;;2.42;;
57565;SDS011;63999;43.882;-0.310;2023-03-14T15:34:09;8.50;;;2.25;;
57565;SDS011;63999;43.882;-0.310;2023-03-14T15:36:36;13.38;;;2.42;;
57565;SDS011;63999;43.882;-0.310;2023-03-14T15:39:04;11.30;;;2.30;;
57565;SDS011;63999;43.882;-0.310;2023-03-14T15:41:31;9.90;;;1.85;;
57565;SDS011;63999;43.882;-0.310;2023-03-14T15:43:58;10.15;;;2.05;;
57565;SDS011;63999;43.882;-0.310;2023-03-14T15:46:24;7.90;;;2.15;;
57565;SDS011;63999;43.882;-0.310;2023-03-14T15:48:51;11.40;;;2.60;;
57565;SDS011;63999;43.882;-0.310;2023-03-14T15:51:18;7.68;;;1.70;;